createdAt,value
2022-10-05T00:02:20.066Z,100.00
2022-10-05T00:04:51.606Z,100.00
2022-10-05T00:07:23.570Z,100.00
2022-10-05T00:09:55.057Z,100.00
2022-10-05T00:12:27.040Z,100.00
2022-10-05T00:14:58.582Z,100.00
2022-10-05T00:17:30.384Z,100.00
2022-10-05T00:20:01.908Z,100.00
2022-10-05T00:22:33.731Z,100.00
2022-10-05T00:25:05.202Z,100.00
2022-10-05T00:27:37.784Z,100.00
2022-10-05T00:30:09.235Z,100.00
2022-10-05T00:32:41.010Z,100.00
2022-10-05T00:35:12.482Z,100.00
2022-10-05T00:37:44.248Z,100.00
2022-10-05T00:40:15.752Z,100.00
2022-10-05T00:42:47.628Z,100.00
2022-10-05T00:45:19.117Z,100.00
2022-10-05T00:47:50.900Z,100.00
2022-10-05T00:50:22.749Z,100.00
2022-10-05T00:52:54.477Z,100.00
2022-10-05T00:55:25.957Z,100.00
2022-10-05T00:57:57.762Z,100.00
2022-10-05T01:00:29.234Z,100.00
2022-10-05T01:03:01.187Z,100.00
2022-10-05T01:05:32.673Z,100.00
2022-10-05T01:08:04.457Z,100.00
2022-10-05T01:10:35.953Z,100.00
2022-10-05T01:13:07.776Z,100.00
2022-10-05T01:15:39.437Z,100.00
2022-10-05T01:18:11.222Z,100.00
2022-10-05T01:20:42.707Z,100.00
2022-10-05T01:23:14.761Z,100.00
2022-10-05T01:25:46.245Z,100.00
2022-10-05T01:28:18.223Z,100.00
2022-10-05T01:30:49.761Z,100.00
2022-10-05T01:33:21.767Z,100.00
2022-10-05T01:35:53.229Z,100.00
2022-10-05T01:38:25.020Z,100.00
2022-10-05T01:40:56.485Z,100.00
2022-10-05T01:43:28.317Z,100.00
2022-10-05T01:45:59.881Z,100.00
2022-10-05T01:48:31.812Z,100.00
2022-10-05T01:51:03.279Z,100.00
2022-10-05T01:53:35.153Z,100.00
2022-10-05T01:56:06.607Z,100.00
2022-10-05T01:58:38.386Z,100.00
2022-10-05T02:01:09.882Z,100.00
2022-10-05T02:03:41.763Z,100.00
2022-10-05T02:06:13.243Z,100.00
2022-10-05T02:08:45.029Z,100.00
2022-10-05T02:11:16.572Z,100.00
2022-10-05T02:13:48.058Z,100.00
2022-10-05T02:16:19.845Z,100.00
2022-10-05T02:18:51.394Z,100.00
2022-10-05T02:21:23.158Z,100.00
2022-10-05T02:23:54.700Z,100.00
2022-10-05T02:26:26.520Z,100.00
2022-10-05T02:28:57.971Z,100.00
2022-10-05T02:31:29.847Z,100.00
2022-10-05T02:34:01.352Z,100.00
2022-10-05T02:36:33.139Z,100.00
2022-10-05T02:39:04.621Z,100.00
2022-10-05T02:41:36.411Z,100.00
2022-10-05T02:44:07.922Z,100.00
2022-10-05T02:46:42.077Z,100.00
2022-10-05T02:49:13.701Z,100.00
2022-10-05T02:51:45.598Z,100.00
2022-10-05T02:54:17.068Z,100.00
2022-10-05T02:56:49.446Z,100.00
2022-10-05T02:59:21.128Z,100.00
2022-10-05T03:01:52.963Z,100.00
2022-10-05T03:04:24.607Z,100.00
2022-10-05T03:06:56.353Z,100.00
2022-10-05T03:09:27.820Z,100.00
2022-10-05T03:11:59.309Z,100.00
2022-10-05T03:14:30.773Z,100.00
2022-10-05T03:17:02.541Z,100.00
2022-10-05T03:19:34.005Z,100.00
2022-10-05T03:22:05.790Z,100.00
2022-10-05T03:24:37.294Z,100.00
2022-10-05T03:27:08.788Z,100.00
2022-10-05T03:29:40.321Z,100.00
2022-10-05T03:32:12.199Z,100.00
2022-10-05T03:34:43.691Z,100.00
2022-10-05T03:37:15.489Z,100.00
2022-10-05T03:39:46.952Z,100.00
2022-10-05T03:42:18.839Z,100.00
2022-10-05T03:44:50.402Z,100.00
2022-10-05T03:47:22.546Z,100.00
2022-10-05T03:49:54.016Z,100.00
2022-10-05T03:52:25.784Z,100.00
2022-10-05T03:54:57.286Z,100.00
2022-10-05T03:57:29.181Z,100.00
2022-10-05T04:00:00.701Z,100.00
2022-10-05T04:02:32.590Z,100.00
2022-10-05T04:05:04.172Z,100.00
2022-10-05T04:07:35.648Z,100.00
2022-10-05T04:10:07.440Z,100.00
2022-10-05T04:12:38.943Z,100.00
2022-10-05T04:15:14.115Z,100.00
2022-10-05T04:17:47.967Z,100.00
2022-10-05T04:20:19.709Z,100.00
2022-10-05T04:22:51.208Z,100.00
2022-10-05T04:25:22.703Z,100.00
2022-10-05T04:27:54.203Z,100.00
2022-10-05T04:30:26.163Z,100.00
2022-10-05T04:32:57.665Z,100.00
2022-10-05T04:35:29.467Z,100.00
2022-10-05T04:38:00.936Z,100.00
2022-10-05T04:40:33.000Z,100.00
2022-10-05T04:43:04.814Z,100.00
2022-10-05T04:45:36.309Z,100.00
2022-10-05T04:48:08.655Z,100.00
2022-10-05T04:50:40.117Z,100.00
2022-10-05T04:53:12.309Z,100.00
2022-10-05T04:55:43.775Z,100.00
2022-10-05T04:58:15.939Z,100.00
2022-10-05T05:00:47.508Z,100.00
2022-10-05T05:03:19.598Z,100.00
2022-10-05T05:06:12.464Z,100.00
2022-10-05T05:08:43.055Z,100.00
2022-10-05T05:11:17.445Z,100.00
2022-10-05T05:13:50.853Z,100.00
2022-10-05T05:16:22.415Z,100.00
2022-10-05T05:18:54.251Z,100.00
2022-10-05T05:21:25.751Z,100.00
2022-10-05T05:23:57.548Z,100.00
2022-10-05T05:26:29.020Z,100.00
2022-10-05T05:29:00.957Z,100.00
2022-10-05T05:31:32.531Z,100.00
2022-10-05T05:34:04.424Z,100.00
2022-10-05T05:36:35.887Z,100.00
2022-10-05T05:39:07.687Z,100.00
2022-10-05T05:41:39.258Z,100.00
2022-10-05T05:44:11.073Z,100.00
2022-10-05T05:47:02.862Z,100.00
2022-10-05T05:49:34.593Z,100.00
2022-10-05T05:52:06.051Z,100.00
2022-10-05T05:54:37.841Z,100.00
2022-10-05T05:57:10.859Z,100.00
2022-10-05T05:59:42.678Z,100.00
2022-10-05T06:02:14.264Z,100.00
2022-10-05T06:04:45.872Z,100.00
2022-10-05T06:07:17.425Z,100.00
2022-10-05T06:09:49.268Z,100.00
2022-10-05T06:12:20.784Z,100.00
2022-10-05T06:14:52.731Z,100.00
2022-10-05T06:17:24.181Z,100.00
2022-10-05T06:20:02.426Z,100.00
2022-10-05T06:22:36.640Z,100.00
2022-10-05T06:25:08.112Z,100.00
2022-10-05T06:27:39.927Z,100.00
2022-10-05T06:30:11.422Z,100.00
2022-10-05T06:32:43.366Z,100.00
2022-10-05T06:35:14.829Z,100.00
2022-10-05T06:37:46.795Z,100.00
2022-10-05T06:40:18.319Z,100.00
2022-10-05T06:42:50.173Z,100.00
2022-10-05T06:45:21.664Z,100.00
2022-10-05T06:47:53.528Z,100.00
2022-10-05T06:50:24.998Z,100.00
2022-10-05T06:52:56.827Z,100.00
2022-10-05T06:55:28.482Z,100.00
2022-10-05T06:58:00.280Z,100.00
2022-10-05T07:00:31.732Z,100.00
2022-10-05T07:03:03.532Z,100.00
2022-10-05T07:05:35.001Z,100.00
2022-10-05T07:08:06.788Z,100.00
2022-10-05T07:10:38.358Z,100.00
2022-10-05T07:13:10.193Z,100.00
2022-10-05T07:15:41.679Z,100.00
2022-10-05T07:18:13.567Z,100.00
2022-10-05T07:20:49.069Z,99.74
2022-10-05T07:23:21.221Z,98.77
2022-10-05T07:25:52.909Z,98.42
2022-10-05T07:28:24.920Z,97.98
2022-10-05T07:30:56.488Z,97.80
2022-10-05T07:33:28.365Z,97.49
2022-10-05T07:36:18.461Z,98.04
2022-10-05T07:38:50.373Z,96.91
2022-10-05T07:41:22.916Z,95.07
2022-10-05T07:44:03.029Z,93.81
2022-10-05T07:46:34.958Z,91.22
2022-10-05T07:49:06.815Z,90.26
2022-10-05T07:51:38.639Z,90.12
2022-10-05T07:54:10.571Z,88.24
2022-10-05T07:56:42.169Z,88.72
2022-10-05T07:59:13.990Z,89.39
2022-10-05T08:01:45.498Z,88.61
2022-10-05T08:04:16.996Z,90.49
2022-10-05T08:06:49.131Z,88.97
2022-10-05T08:09:21.334Z,86.90
2022-10-05T08:11:52.814Z,85.21
2022-10-05T08:14:24.724Z,86.65
2022-10-05T08:16:56.350Z,84.85
2022-10-05T08:19:28.357Z,84.12
2022-10-05T08:21:59.822Z,83.96
2022-10-05T08:24:31.653Z,83.15
2022-10-05T08:27:03.119Z,82.12
2022-10-05T08:29:35.313Z,81.80
2022-10-05T08:32:06.799Z,81.39
2022-10-05T08:34:38.758Z,81.26
2022-10-05T08:37:10.255Z,80.35
2022-10-05T08:39:42.912Z,74.84
2022-10-05T08:42:14.388Z,74.57
2022-10-05T08:44:46.207Z,73.97
2022-10-05T08:47:17.755Z,74.35
2022-10-05T08:49:49.558Z,74.75
2022-10-05T08:52:21.079Z,73.22
2022-10-05T08:54:53.071Z,73.47
2022-10-05T08:57:24.525Z,74.73
2022-10-05T08:59:56.393Z,72.22
2022-10-05T09:02:28.100Z,73.58
2022-10-05T09:04:59.969Z,72.16
2022-10-05T09:07:31.462Z,73.49
2022-10-05T09:10:03.277Z,72.63
2022-10-05T09:12:34.732Z,72.86
2022-10-05T09:15:24.704Z,72.89
2022-10-05T09:17:56.698Z,73.41
2022-10-05T09:20:30.666Z,72.31
2022-10-05T09:23:02.584Z,70.26
2022-10-05T09:25:34.051Z,70.60
2022-10-05T09:28:05.624Z,71.12
2022-10-05T09:30:37.145Z,71.53
2022-10-05T09:33:08.980Z,70.97
2022-10-05T09:35:40.461Z,72.25
2022-10-05T09:38:12.507Z,72.35
2022-10-05T09:40:44.969Z,72.68
2022-10-05T09:43:16.856Z,74.52
2022-10-05T09:45:48.807Z,72.87
2022-10-05T09:48:22.262Z,72.09
2022-10-05T09:50:54.734Z,72.59
2022-10-05T09:53:26.640Z,71.37
2022-10-05T09:55:59.726Z,74.15
2022-10-05T09:58:32.406Z,72.99
2022-10-05T10:01:15.493Z,72.86
2022-10-05T10:03:47.962Z,72.77
2022-10-05T10:06:19.516Z,71.77
2022-10-05T10:08:52.382Z,70.53
2022-10-05T10:11:23.855Z,70.29
2022-10-05T10:13:56.807Z,71.37
2022-10-05T10:16:28.270Z,72.39
2022-10-05T10:19:00.086Z,71.66
2022-10-05T10:21:33.185Z,70.77
2022-10-05T10:24:05.020Z,71.51
2022-10-05T10:26:36.592Z,73.85
2022-10-05T10:29:08.416Z,73.38
2022-10-05T10:31:39.905Z,74.27
2022-10-05T10:34:11.715Z,73.77
2022-10-05T10:36:43.620Z,74.78
2022-10-05T10:39:15.380Z,73.70
2022-10-05T10:41:46.857Z,73.34
2022-10-05T10:44:18.655Z,73.22
2022-10-05T10:46:50.369Z,73.04
2022-10-05T10:49:22.581Z,72.58
2022-10-05T10:51:54.088Z,72.35
2022-10-05T10:54:25.751Z,73.89
2022-10-05T10:56:57.232Z,73.66
2022-10-05T10:59:31.490Z,73.53
2022-10-05T11:02:03.875Z,73.25
2022-10-05T11:04:35.916Z,74.19
2022-10-05T11:07:07.377Z,72.63
2022-10-05T11:09:39.155Z,73.64
2022-10-05T11:12:10.625Z,72.28
2022-10-05T11:14:42.741Z,72.50
2022-10-05T11:17:15.480Z,71.18
2022-10-05T11:20:03.002Z,71.97
2022-10-05T11:22:35.804Z,69.47
2022-10-05T11:25:07.597Z,68.06
2022-10-05T11:27:39.102Z,69.26
2022-10-05T11:30:11.004Z,66.63
2022-10-05T11:32:42.623Z,66.71
2022-10-05T11:35:14.475Z,66.23
2022-10-05T11:37:46.001Z,65.38
2022-10-05T11:40:17.840Z,63.44
2022-10-05T11:42:49.331Z,62.90
2022-10-05T11:45:22.233Z,62.04
2022-10-05T11:47:53.775Z,63.83
2022-10-05T11:50:27.214Z,63.50
2022-10-05T11:52:58.677Z,64.42
2022-10-05T11:55:30.620Z,66.31
2022-10-05T11:58:02.203Z,66.28
2022-10-05T12:00:34.011Z,67.52
2022-10-05T12:03:06.958Z,66.18
2022-10-05T12:05:38.861Z,67.35
2022-10-05T12:08:10.364Z,66.87
2022-10-05T12:10:42.478Z,64.92
2022-10-05T12:13:14.389Z,65.79
2022-10-05T12:15:47.224Z,65.52
2022-10-05T12:18:18.779Z,65.91
2022-10-05T12:20:50.301Z,65.29
2022-10-05T12:23:22.239Z,64.98
2022-10-05T12:25:53.818Z,64.19
2022-10-05T12:28:28.774Z,63.51
2022-10-05T12:31:00.685Z,63.03
2022-10-05T12:33:32.249Z,64.11
2022-10-05T12:36:03.753Z,62.44
2022-10-05T12:38:35.404Z,61.92
2022-10-05T12:41:07.541Z,62.61
2022-10-05T12:43:39.013Z,62.24
2022-10-05T12:46:10.922Z,63.22
2022-10-05T12:48:43.697Z,61.54
2022-10-05T12:51:15.511Z,62.41
2022-10-05T12:53:48.465Z,61.29
2022-10-05T12:56:21.852Z,61.22
2022-10-05T12:58:53.355Z,59.84
2022-10-05T13:01:25.180Z,58.44
2022-10-05T13:03:56.713Z,58.84
2022-10-05T13:06:28.220Z,59.87
2022-10-05T13:08:59.705Z,59.36
2022-10-05T13:11:31.856Z,59.98
2022-10-05T13:14:03.442Z,59.69
2022-10-05T13:16:35.341Z,60.05
2022-10-05T13:19:06.894Z,60.23
2022-10-05T13:21:40.830Z,61.30
2022-10-05T13:24:12.470Z,60.63
2022-10-05T13:26:44.276Z,59.70
2022-10-05T13:29:15.782Z,59.53
2022-10-05T13:31:48.189Z,58.43
2022-10-05T13:34:19.775Z,58.39
2022-10-05T13:36:51.654Z,58.60
2022-10-05T13:39:23.155Z,58.46
2022-10-05T13:41:55.419Z,58.71
2022-10-05T13:44:26.956Z,58.08
2022-10-05T13:46:58.839Z,58.05
2022-10-05T13:49:30.381Z,58.79
2022-10-05T13:52:02.229Z,59.75
2022-10-05T13:54:33.728Z,58.68
2022-10-05T13:57:05.692Z,59.95
2022-10-05T13:59:38.115Z,58.87
2022-10-05T14:02:09.729Z,59.16
2022-10-05T14:04:41.273Z,59.09
2022-10-05T14:07:13.251Z,59.24
2022-10-05T14:09:44.767Z,58.54
2022-10-05T14:12:16.649Z,58.44
2022-10-05T14:14:48.149Z,59.25
2022-10-05T14:17:20.092Z,58.86
2022-10-05T14:19:51.974Z,58.50
2022-10-05T14:22:23.904Z,57.45
2022-10-05T14:24:55.468Z,57.92
2022-10-05T14:27:27.266Z,57.63
2022-10-05T14:29:59.712Z,59.09
2022-10-05T14:32:31.632Z,59.25
2022-10-05T14:35:05.137Z,58.98
2022-10-05T14:37:37.056Z,59.25
2022-10-05T14:40:08.607Z,59.21
2022-10-05T14:42:44.943Z,58.24
2022-10-05T14:45:18.553Z,58.73
2022-10-05T14:47:50.385Z,58.56
2022-10-05T14:50:25.966Z,59.27
2022-10-05T14:52:58.560Z,59.52
2022-10-05T14:55:30.059Z,59.84
2022-10-05T14:58:01.928Z,60.32
2022-10-05T15:00:34.342Z,60.55
2022-10-05T15:03:06.003Z,61.30
2022-10-05T15:05:37.856Z,61.78
2022-10-05T15:08:09.594Z,62.47
2022-10-05T15:10:41.383Z,62.61
2022-10-05T15:13:12.884Z,63.33
2022-10-05T15:15:44.693Z,64.02
2022-10-05T15:18:16.256Z,64.89
2022-10-05T15:20:47.795Z,65.07
2022-10-05T15:23:23.720Z,65.58
2022-10-05T15:25:55.643Z,66.05
2022-10-05T15:28:27.178Z,66.46
2022-10-05T15:30:59.571Z,67.10
2022-10-05T15:33:31.302Z,68.33
2022-10-05T15:36:03.110Z,69.09
2022-10-05T15:38:34.779Z,68.33
2022-10-05T15:41:06.659Z,69.08
2022-10-05T15:43:38.185Z,69.20
2022-10-05T15:46:10.811Z,69.81
2022-10-05T15:48:42.370Z,69.91
2022-10-05T15:51:15.960Z,70.46
2022-10-05T15:53:47.460Z,70.21
2022-10-05T15:56:19.328Z,70.43
2022-10-05T15:58:50.837Z,71.01
2022-10-05T16:01:22.705Z,71.21
2022-10-05T16:03:54.281Z,71.00
2022-10-05T16:06:44.462Z,71.46
2022-10-05T16:09:15.964Z,72.05
2022-10-05T16:11:47.871Z,72.12
2022-10-05T16:14:19.370Z,73.23
2022-10-05T16:16:51.227Z,73.90
2022-10-05T16:19:22.767Z,73.54
2022-10-05T16:21:54.517Z,73.96
2022-10-05T16:24:26.011Z,74.67
2022-10-05T16:26:58.011Z,75.00
2022-10-05T16:29:29.522Z,75.75
2022-10-05T16:32:01.148Z,76.66
2022-10-05T16:34:32.671Z,76.72
2022-10-05T16:37:04.539Z,77.95
2022-10-05T16:39:36.089Z,78.41
2022-10-05T16:42:08.110Z,79.15
2022-10-05T16:44:39.628Z,80.77
2022-10-05T16:47:11.461Z,81.65
2022-10-05T16:49:43.324Z,82.14
2022-10-05T16:52:14.995Z,82.89
2022-10-05T16:54:48.076Z,83.47
2022-10-05T16:57:19.859Z,83.84
2022-10-05T16:59:51.828Z,84.70
2022-10-05T17:02:23.455Z,85.23
2022-10-05T17:04:57.256Z,85.99
2022-10-05T17:07:28.773Z,86.95
2022-10-05T17:10:00.456Z,86.92
2022-10-05T17:12:32.064Z,87.71
2022-10-05T17:15:03.967Z,88.19
2022-10-05T17:17:35.544Z,89.19
2022-10-05T17:20:07.324Z,89.32
2022-10-05T17:22:39.721Z,89.95
2022-10-05T17:25:11.625Z,89.73
2022-10-05T17:27:47.650Z,90.67
2022-10-05T17:30:22.436Z,89.99
2022-10-05T17:32:55.293Z,90.66
2022-10-05T17:35:27.883Z,91.73
2022-10-05T17:37:59.407Z,91.78
2022-10-05T17:40:31.434Z,92.06
2022-10-05T17:43:02.995Z,93.15
2022-10-05T17:45:34.842Z,93.19
2022-10-05T17:48:06.332Z,95.30
2022-10-05T17:50:57.210Z,95.68
2022-10-05T17:53:47.336Z,95.34
2022-10-05T17:56:19.148Z,96.07
2022-10-05T17:58:57.096Z,96.85
2022-10-05T18:01:32.046Z,96.47
2022-10-05T18:04:03.614Z,98.43
2022-10-05T18:06:37.630Z,98.40
2022-10-05T18:09:09.152Z,99.13
2022-10-05T18:11:40.766Z,99.06
2022-10-05T18:14:12.287Z,100.00
2022-10-05T18:16:44.258Z,100.00
2022-10-05T18:19:16.676Z,100.00
2022-10-05T18:21:48.969Z,100.00
2022-10-05T18:24:20.492Z,100.00
2022-10-05T18:26:52.477Z,100.00
2022-10-05T18:29:43.959Z,100.00
2022-10-05T18:32:15.917Z,100.00
2022-10-05T18:34:47.856Z,100.00
2022-10-05T18:37:21.229Z,100.00
2022-10-05T18:39:53.123Z,100.00
2022-10-05T18:42:25.835Z,100.00
2022-10-05T18:44:59.246Z,100.00
2022-10-05T18:47:31.246Z,100.00
2022-10-05T18:50:03.127Z,100.00
2022-10-05T18:52:36.220Z,100.00
2022-10-05T18:55:07.883Z,100.00
2022-10-05T18:57:39.403Z,100.00
2022-10-05T19:00:10.914Z,100.00
2022-10-05T19:02:43.000Z,100.00
2022-10-05T19:05:35.788Z,100.00
2022-10-05T19:08:10.592Z,100.00
2022-10-05T19:10:42.446Z,100.00
2022-10-05T19:13:13.926Z,100.00
2022-10-05T19:15:45.862Z,100.00
2022-10-05T19:18:18.523Z,100.00
2022-10-05T19:20:52.750Z,100.00
2022-10-05T19:23:24.531Z,100.00
2022-10-05T19:25:59.170Z,100.00
2022-10-05T19:28:31.343Z,100.00
2022-10-05T19:31:03.637Z,100.00
2022-10-05T19:33:35.796Z,100.00
2022-10-05T19:36:07.672Z,100.00
2022-10-05T19:38:39.368Z,100.00
2022-10-05T19:41:11.797Z,100.00
2022-10-05T19:43:43.489Z,100.00
2022-10-05T19:46:19.033Z,100.00
2022-10-05T19:48:51.551Z,100.00
2022-10-05T19:51:25.607Z,100.00
2022-10-05T19:53:57.170Z,100.00
2022-10-05T19:56:31.271Z,100.00
2022-10-05T19:59:02.772Z,100.00
2022-10-05T20:01:35.493Z,100.00
2022-10-05T20:04:07.579Z,100.00
2022-10-05T20:06:40.041Z,100.00
2022-10-05T20:09:11.494Z,100.00
2022-10-05T20:11:43.284Z,100.00
2022-10-05T20:14:14.760Z,100.00
2022-10-05T20:17:05.271Z,100.00
2022-10-05T20:19:55.544Z,100.00
2022-10-05T20:22:27.352Z,100.00
2022-10-05T20:25:00.326Z,100.00
2022-10-05T20:27:31.794Z,100.00
2022-10-05T20:30:03.654Z,100.00
2022-10-05T20:32:35.121Z,100.00
2022-10-05T20:35:06.961Z,100.00
2022-10-05T20:37:38.889Z,99.90
2022-10-05T20:40:10.412Z,100.00
2022-10-05T20:42:41.929Z,99.64
2022-10-05T20:45:13.410Z,99.05
2022-10-05T20:47:46.575Z,98.99
2022-10-05T20:50:18.788Z,99.44
2022-10-05T20:52:50.253Z,99.18
2022-10-05T20:55:21.819Z,99.19
2022-10-05T20:57:53.276Z,99.29
2022-10-05T21:00:25.079Z,99.32
2022-10-05T21:02:57.301Z,99.67
2022-10-05T21:05:29.103Z,99.61
2022-10-05T21:08:01.704Z,98.97
2022-10-05T21:10:33.574Z,98.30
2022-10-05T21:13:05.884Z,99.28
2022-10-05T21:15:38.215Z,98.68
2022-10-05T21:18:09.690Z,97.66
2022-10-05T21:20:41.465Z,97.82
2022-10-05T21:23:12.933Z,97.75
2022-10-05T21:25:44.651Z,97.18
2022-10-05T21:28:16.236Z,97.41
2022-10-05T21:30:48.056Z,97.49
2022-10-05T21:33:19.547Z,96.91
2022-10-05T21:35:51.319Z,96.83
2022-10-05T21:38:22.817Z,96.01
2022-10-05T21:40:54.766Z,95.62
2022-10-05T21:43:26.987Z,95.33
2022-10-05T21:45:59.153Z,96.14
2022-10-05T21:48:31.110Z,95.89
2022-10-05T21:51:03.178Z,96.15
2022-10-05T21:53:34.721Z,96.62
2022-10-05T21:56:06.186Z,96.83
2022-10-05T21:58:37.680Z,97.60
2022-10-05T22:01:09.474Z,97.68
2022-10-05T22:03:41.203Z,97.39
2022-10-05T22:06:13.212Z,98.25
2022-10-05T22:08:44.687Z,98.57
2022-10-05T22:11:16.634Z,98.48
2022-10-05T22:13:48.148Z,99.00
2022-10-05T22:16:19.964Z,99.42
2022-10-05T22:18:53.564Z,98.91
2022-10-05T22:21:25.528Z,99.23
2022-10-05T22:23:57.008Z,100.00
2022-10-05T22:26:28.804Z,100.00
2022-10-05T22:29:01.685Z,100.00
2022-10-05T22:31:33.233Z,100.00
2022-10-05T22:34:04.707Z,100.00
2022-10-05T22:36:36.650Z,100.00
2022-10-05T22:39:08.135Z,100.00
2022-10-05T22:41:40.076Z,100.00
2022-10-05T22:44:11.603Z,100.00
2022-10-05T22:46:43.528Z,100.00
2022-10-05T22:49:14.981Z,100.00
2022-10-05T22:51:48.419Z,100.00
2022-10-05T22:54:19.925Z,100.00
2022-10-05T22:56:51.841Z,100.00
2022-10-05T22:59:23.325Z,100.00
2022-10-05T23:01:55.425Z,100.00
2022-10-05T23:04:27.149Z,100.00
2022-10-05T23:06:59.275Z,100.00
2022-10-05T23:09:30.735Z,100.00
2022-10-05T23:12:02.268Z,100.00
2022-10-05T23:14:34.723Z,100.00
2022-10-05T23:17:08.153Z,100.00
2022-10-05T23:19:39.608Z,100.00
2022-10-05T23:22:11.443Z,100.00
2022-10-05T23:24:42.901Z,100.00
2022-10-05T23:27:14.835Z,100.00
2022-10-05T23:29:46.304Z,100.00
2022-10-05T23:32:17.873Z,100.00
2022-10-05T23:34:49.440Z,100.00
2022-10-05T23:37:23.178Z,100.00
2022-10-05T23:39:54.686Z,100.00
2022-10-05T23:42:26.642Z,100.00
2022-10-05T23:44:58.157Z,100.00
2022-10-05T23:47:30.078Z,100.00
2022-10-05T23:50:01.627Z,100.00
2022-10-05T23:52:33.099Z,100.00
2022-10-05T23:55:04.585Z,100.00
2022-10-05T23:57:36.392Z,100.00
